首页
METAR-TAF:

METAR-TAF

机场 :

林茨, 奥地利

纬度: 48-14N, 经度: 014-11E, 海拔: 298米

当前天气观测

该预报发布于28分钟前的05:20 UTC
静风
温度 -1°C
湿度 100%
气压 1017 hPa
能見度: 4200
少量云层高于200英尺
散云层高于23000英尺
轻雾

METAR: LOWL 190520Z 00000KT 4200 BR FEW002 SCT230 M01/M01 Q1017 TEMPO 0300 FZBCFG BKN003

时间: 06:48 (05:48 UTC)

预报

该预报发布于33分钟前的05:15 UTC
预报有效从19日的 06点(UTC)到 20日的 06点(UTC)
风速2节,风向多变
能見度: 5000
散云层高于400英尺
散云层高于15000英尺
轻雾
短暂存在
从 19日的 06点(UTC)到 19日的 10点(UTC)
能見度: 0200
多云层高于200英尺
成为
从 19日的 09点(UTC)到 19日的 11点(UTC)
风速5节,风向西转西南
能见度10公里或以上
少量云层高于4000英尺
成为
从 19日的 19点(UTC)到 19日的 21点(UTC)
风速2节,风向多变
能見度: 4000
多云层高于1000英尺
轻雾
短暂存在
从 20日的 00点(UTC)到 20日的 06点(UTC)
能見度: 0800
阴天层高于400英尺
碎片雾

TAF: LOWL 190515Z 1906/2006 VRB02KT 5000 BR SCT004 SCT150 TX08/1914Z TN00/1906Z TEMPO 1906/1910 0200 FG BKN002 BECMG 1909/1911 24005KT 9999 FEW040 BECMG 1919/1921 VRB02KT 4000 BR BKN010 TEMPO 2000/2006 0800 BCFG OVC004

超过4000个机场的气象观测和天气预报(METAR&TAF报告)。

可查询的气象台以黄色和红色小点在地图上表示。

将鼠标移到小点上方,可查看气象台名称。

然后点击查看天气观测和预报。

如需切换地图:点击带黑十字的绿色按钮放大地图;点击带横线的绿色按钮缩小地图;或者点击绿色箭头查看邻近地区的地图。


METAR-TAF: